createdAt,value
2023-01-15T00:01:54.464Z,0.00
2023-01-15T00:04:22.949Z,0.00
2023-01-15T00:06:51.868Z,0.00
2023-01-15T00:09:20.345Z,0.00
2023-01-15T00:11:48.913Z,0.00
2023-01-15T00:14:17.579Z,0.07
2023-01-15T00:16:46.336Z,0.00
2023-01-15T00:19:18.807Z,0.00
2023-01-15T00:21:47.281Z,0.00
2023-01-15T00:24:33.625Z,0.00
2023-01-15T00:27:22.038Z,0.07
2023-01-15T00:29:50.748Z,0.10
2023-01-15T00:32:19.351Z,0.00
2023-01-15T00:34:49.215Z,0.00
2023-01-15T00:37:17.827Z,0.00
2023-01-15T00:39:46.430Z,0.00
2023-01-15T00:42:16.188Z,0.00
2023-01-15T00:44:44.942Z,0.00
2023-01-15T00:47:15.003Z,0.00
2023-01-15T00:49:43.627Z,0.00
2023-01-15T00:52:14.267Z,0.00
2023-01-15T00:54:42.729Z,0.00
2023-01-15T00:57:11.550Z,0.00
2023-01-15T00:59:40.263Z,0.00
2023-01-15T01:02:08.815Z,0.00
2023-01-15T01:04:37.379Z,0.27
2023-01-15T01:07:06.154Z,0.00
2023-01-15T01:09:36.178Z,0.00
2023-01-15T01:12:04.666Z,0.00
2023-01-15T01:14:33.497Z,0.00
2023-01-15T01:17:01.972Z,0.00
2023-01-15T01:19:30.458Z,0.00
2023-01-15T01:21:59.147Z,0.00
2023-01-15T01:24:27.780Z,0.00
2023-01-15T01:26:57.646Z,0.00
2023-01-15T01:29:26.459Z,0.00
2023-01-15T01:31:54.944Z,0.00
2023-01-15T01:34:23.661Z,0.00
2023-01-15T01:36:52.494Z,0.00
2023-01-15T01:39:21.571Z,0.00
2023-01-15T01:41:50.377Z,0.00
2023-01-15T01:44:37.483Z,0.00
2023-01-15T01:47:08.863Z,0.00
2023-01-15T01:49:37.841Z,0.00
2023-01-15T01:52:08.405Z,0.00
2023-01-15T01:54:38.380Z,0.00
2023-01-15T01:57:07.414Z,0.00
2023-01-15T01:59:36.142Z,0.00
2023-01-15T02:02:05.306Z,0.00
2023-01-15T02:04:35.458Z,0.00
2023-01-15T02:07:04.341Z,0.00
2023-01-15T02:09:33.427Z,0.00
2023-01-15T02:12:05.872Z,0.00
2023-01-15T02:14:37.504Z,0.00
2023-01-15T02:17:09.270Z,0.00
2023-01-15T02:19:47.443Z,0.00
2023-01-15T02:22:19.052Z,0.00
2023-01-15T02:24:52.027Z,0.00
2023-01-15T02:27:22.515Z,0.00
2023-01-15T02:29:53.870Z,0.00
2023-01-15T02:32:25.949Z,0.00
2023-01-15T02:34:55.825Z,0.00
2023-01-15T02:37:27.476Z,0.20
2023-01-15T02:39:57.791Z,0.00
2023-01-15T02:42:29.572Z,0.00
2023-01-15T02:45:00.109Z,0.00
2023-01-15T02:47:30.872Z,0.00
2023-01-15T02:50:00.260Z,0.00
2023-01-15T02:52:30.747Z,0.73
2023-01-15T02:55:01.608Z,0.10
2023-01-15T02:57:33.347Z,0.47
2023-01-15T03:00:03.843Z,0.20
2023-01-15T03:02:36.892Z,1.57
2023-01-15T03:05:07.987Z,3.50
2023-01-15T03:07:38.374Z,4.80
2023-01-15T03:10:07.599Z,1.67
2023-01-15T03:13:02.474Z,2.67
2023-01-15T03:15:50.677Z,1.50
2023-01-15T03:18:22.082Z,1.37
2023-01-15T03:20:52.586Z,1.03
2023-01-15T03:23:23.956Z,4.80
2023-01-15T03:25:52.998Z,2.93
2023-01-15T03:28:26.007Z,3.37
2023-01-15T03:30:54.643Z,6.37
2023-01-15T03:33:23.204Z,2.20
2023-01-15T03:35:54.050Z,4.97
2023-01-15T03:38:25.547Z,3.37
2023-01-15T03:40:57.538Z,7.80
2023-01-15T03:43:42.868Z,9.73
2023-01-15T03:46:21.825Z,8.53
2023-01-15T03:48:53.679Z,4.67
2023-01-15T03:51:24.099Z,4.47
2023-01-15T03:53:55.167Z,4.83
2023-01-15T03:56:26.840Z,4.63
2023-01-15T03:58:59.451Z,4.27
2023-01-15T04:01:29.518Z,5.27
2023-01-15T04:03:58.829Z,5.20
2023-01-15T04:06:28.820Z,3.87
2023-01-15T04:08:57.467Z,4.67
2023-01-15T04:11:27.129Z,6.47
2023-01-15T04:13:57.008Z,8.13
2023-01-15T04:16:27.502Z,7.90
2023-01-15T04:18:56.403Z,7.47
2023-01-15T04:21:24.894Z,4.23
2023-01-15T04:23:53.376Z,3.13
2023-01-15T04:26:22.205Z,2.63
2023-01-15T04:28:50.831Z,3.70
2023-01-15T04:31:20.963Z,8.80
2023-01-15T04:33:49.843Z,3.53
2023-01-15T04:36:18.351Z,6.23
2023-01-15T04:38:46.854Z,4.47
2023-01-15T04:41:32.940Z,3.50
2023-01-15T04:44:10.525Z,2.40
2023-01-15T04:46:41.128Z,2.13
2023-01-15T04:49:11.979Z,2.83
2023-01-15T04:51:40.684Z,5.53
2023-01-15T04:54:10.041Z,2.07
2023-01-15T04:56:39.733Z,0.73
2023-01-15T04:59:08.481Z,0.93
2023-01-15T05:01:37.199Z,5.33
2023-01-15T05:04:07.944Z,1.97
2023-01-15T05:06:36.638Z,4.07
2023-01-15T05:09:05.750Z,4.57
2023-01-15T05:11:36.720Z,2.37
2023-01-15T05:14:05.467Z,2.20
2023-01-15T05:16:35.260Z,2.80
2023-01-15T05:19:04.619Z,5.20
2023-01-15T05:21:35.692Z,4.33
2023-01-15T05:24:05.473Z,4.63
2023-01-15T05:26:34.848Z,1.80
2023-01-15T05:29:03.656Z,4.97
2023-01-15T05:31:33.844Z,4.87
2023-01-15T05:34:02.475Z,1.20
2023-01-15T05:36:32.117Z,5.03
2023-01-15T05:39:02.679Z,0.63
2023-01-15T05:41:50.153Z,1.20
2023-01-15T05:44:19.997Z,2.03
2023-01-15T05:46:49.129Z,0.33
2023-01-15T05:49:18.616Z,1.70
2023-01-15T05:51:47.350Z,1.10
2023-01-15T05:54:18.684Z,0.77
2023-01-15T05:56:47.933Z,1.23
2023-01-15T05:59:17.275Z,0.77
2023-01-15T06:01:45.792Z,1.60
2023-01-15T06:04:15.321Z,1.23
2023-01-15T06:06:44.272Z,1.33
2023-01-15T06:09:12.866Z,0.33
2023-01-15T06:11:42.792Z,0.40
2023-01-15T06:14:12.550Z,0.20
2023-01-15T06:16:41.794Z,0.00
2023-01-15T06:19:11.218Z,0.77
2023-01-15T06:21:39.846Z,0.87
2023-01-15T06:24:08.657Z,0.00
2023-01-15T06:26:37.186Z,0.00
2023-01-15T06:29:07.322Z,0.80
2023-01-15T06:31:35.914Z,0.67
2023-01-15T06:34:04.493Z,1.73
2023-01-15T06:36:33.229Z,0.40
2023-01-15T06:39:03.107Z,0.07
2023-01-15T06:41:50.757Z,1.30
2023-01-15T06:44:37.613Z,0.10
2023-01-15T06:47:24.951Z,0.10
2023-01-15T06:49:54.737Z,0.00
2023-01-15T06:52:23.532Z,0.30
2023-01-15T06:54:52.327Z,0.23
2023-01-15T06:57:21.011Z,2.03
2023-01-15T06:59:50.989Z,0.87
2023-01-15T07:02:19.884Z,0.20
2023-01-15T07:04:49.164Z,3.50
2023-01-15T07:07:17.848Z,21.73
2023-01-15T07:09:46.558Z,2.80
2023-01-15T07:12:15.133Z,7.37
2023-01-15T07:14:44.227Z,5.13
2023-01-15T07:17:14.462Z,5.77
2023-01-15T07:19:43.067Z,0.30
2023-01-15T07:22:12.110Z,0.30
2023-01-15T07:24:41.183Z,1.50
2023-01-15T07:27:09.832Z,2.77
2023-01-15T07:29:38.309Z,1.47
2023-01-15T07:32:07.290Z,2.27
2023-01-15T07:34:37.237Z,0.70
2023-01-15T07:37:05.753Z,2.20
2023-01-15T07:39:34.327Z,2.77
2023-01-15T07:42:20.702Z,14.27
2023-01-15T07:45:06.850Z,1.33
2023-01-15T07:47:52.915Z,4.00
2023-01-15T07:50:23.770Z,3.23
2023-01-15T07:52:53.427Z,4.40
2023-01-15T07:55:22.639Z,2.67
2023-01-15T07:57:51.157Z,1.60
2023-01-15T08:00:22.207Z,6.83
2023-01-15T08:02:51.025Z,5.53
2023-01-15T08:05:19.752Z,44.97
2023-01-15T08:07:50.613Z,4.87
2023-01-15T08:10:19.893Z,1.33
2023-01-15T08:13:08.443Z,3.57
2023-01-15T08:15:40.346Z,5.23
2023-01-15T08:18:09.020Z,3.63
2023-01-15T08:20:37.719Z,3.43
2023-01-15T08:23:07.927Z,15.93
2023-01-15T08:25:36.669Z,4.13
2023-01-15T08:28:05.445Z,3.43
2023-01-15T08:30:34.090Z,1.03
2023-01-15T08:33:03.646Z,1.70
2023-01-15T08:35:32.440Z,2.40
2023-01-15T08:38:01.026Z,1.57
2023-01-15T08:40:30.915Z,0.40
2023-01-15T08:42:59.535Z,1.67
2023-01-15T08:45:28.078Z,0.83
2023-01-15T08:47:58.315Z,1.60
2023-01-15T08:50:26.897Z,2.27
2023-01-15T08:52:55.499Z,0.30
2023-01-15T08:55:24.001Z,0.30
2023-01-15T08:57:53.999Z,1.77
2023-01-15T09:00:24.630Z,0.07
2023-01-15T09:02:53.214Z,0.40
2023-01-15T09:05:21.830Z,1.23
2023-01-15T09:07:50.417Z,0.00
2023-01-15T09:10:18.960Z,0.00
2023-01-15T09:12:47.506Z,0.10
2023-01-15T09:15:17.553Z,0.20
2023-01-15T09:17:46.538Z,0.00
2023-01-15T09:20:15.459Z,0.53
2023-01-15T09:22:44.593Z,0.50
2023-01-15T09:25:13.073Z,22.27
2023-01-15T09:27:41.706Z,2.40
2023-01-15T09:30:10.929Z,1.40
2023-01-15T09:32:40.850Z,0.20
2023-01-15T09:35:10.125Z,1.87
2023-01-15T09:37:38.769Z,0.63
2023-01-15T09:40:09.322Z,0.50
2023-01-15T09:42:45.405Z,1.77
2023-01-15T09:45:20.409Z,1.57
2023-01-15T09:48:01.908Z,0.20
2023-01-15T09:50:34.570Z,2.77
2023-01-15T09:53:17.557Z,0.10
2023-01-15T09:55:48.168Z,1.97
2023-01-15T09:58:17.669Z,0.67
2023-01-15T10:00:48.055Z,0.93
2023-01-15T10:03:23.515Z,1.40
2023-01-15T10:05:55.713Z,1.53
2023-01-15T10:08:26.098Z,3.73
2023-01-15T10:10:57.281Z,1.80
2023-01-15T10:13:29.818Z,1.40
2023-01-15T10:15:58.779Z,1.57
2023-01-15T10:18:29.585Z,0.40
2023-01-15T10:21:08.915Z,0.37
2023-01-15T10:23:40.276Z,3.83
2023-01-15T10:26:20.023Z,0.70
2023-01-15T10:29:03.409Z,3.90
2023-01-15T10:31:46.956Z,1.07
2023-01-15T10:34:28.665Z,0.70
2023-01-15T10:37:00.668Z,1.10
2023-01-15T10:39:32.134Z,1.03
2023-01-15T10:42:09.122Z,2.57
2023-01-15T10:44:42.707Z,0.40
2023-01-15T10:47:15.496Z,0.20
2023-01-15T10:49:46.638Z,0.27
2023-01-15T10:52:21.423Z,2.10
2023-01-15T10:54:51.468Z,1.80
2023-01-15T10:57:23.315Z,2.27
2023-01-15T10:59:53.865Z,1.40
2023-01-15T11:02:25.540Z,0.20
2023-01-15T11:04:55.767Z,3.07
2023-01-15T11:07:26.625Z,1.27
2023-01-15T11:09:55.673Z,0.10
2023-01-15T11:12:42.875Z,0.20
2023-01-15T11:15:35.651Z,1.70
2023-01-15T11:18:22.507Z,0.20
2023-01-15T11:20:52.382Z,0.43
2023-01-15T11:23:23.413Z,0.53
2023-01-15T11:25:52.978Z,1.30
2023-01-15T11:28:32.172Z,0.40
2023-01-15T11:31:00.690Z,0.53
2023-01-15T11:33:30.244Z,1.17
2023-01-15T11:36:01.192Z,1.50
2023-01-15T11:38:30.593Z,0.10
2023-01-15T11:40:59.862Z,0.17
2023-01-15T11:43:46.992Z,0.70
2023-01-15T11:46:43.076Z,0.47
2023-01-15T11:49:30.215Z,0.23
2023-01-15T11:52:00.474Z,0.20
2023-01-15T11:54:29.380Z,0.67
2023-01-15T11:56:57.970Z,0.10
2023-01-15T11:59:27.239Z,0.10
2023-01-15T12:02:00.018Z,0.00
2023-01-15T12:04:34.794Z,0.00
2023-01-15T12:07:06.078Z,4.47
2023-01-15T12:09:41.987Z,0.20
2023-01-15T12:12:17.611Z,0.00
2023-01-15T12:15:12.311Z,0.10
2023-01-15T12:17:51.114Z,0.00
2023-01-15T12:20:25.049Z,0.00
2023-01-15T12:23:02.676Z,0.10
2023-01-15T12:25:36.776Z,0.00
2023-01-15T12:28:09.141Z,0.00
2023-01-15T12:30:43.328Z,0.00
2023-01-15T12:33:20.858Z,0.00
2023-01-15T12:35:57.696Z,0.07
2023-01-15T12:38:31.692Z,0.00
2023-01-15T12:41:03.744Z,0.10
2023-01-15T12:43:49.814Z,0.00
2023-01-15T12:46:20.072Z,0.83
2023-01-15T12:48:51.420Z,0.00
2023-01-15T12:51:24.453Z,0.03
2023-01-15T12:53:57.158Z,0.00
2023-01-15T12:56:28.948Z,0.20
2023-01-15T12:58:59.323Z,0.10
2023-01-15T13:01:31.535Z,0.10
2023-01-15T13:04:13.071Z,0.57
2023-01-15T13:06:45.142Z,0.93
2023-01-15T13:09:20.839Z,2.97
2023-01-15T13:11:49.658Z,2.67
2023-01-15T13:14:18.665Z,3.30
2023-01-15T13:16:52.302Z,0.93
2023-01-15T13:19:35.591Z,8.20
2023-01-15T13:22:07.511Z,6.10
2023-01-15T13:24:51.926Z,7.57
2023-01-15T13:27:26.807Z,11.17
2023-01-15T13:30:02.644Z,9.47
2023-01-15T13:32:32.791Z,7.27
2023-01-15T13:35:05.962Z,9.93
2023-01-15T13:37:36.794Z,14.63
2023-01-15T13:40:11.217Z,18.33
2023-01-15T13:42:41.006Z,11.80
2023-01-15T13:45:26.783Z,12.70
2023-01-15T13:47:56.909Z,14.00
2023-01-15T13:50:29.266Z,18.80
2023-01-15T13:53:02.682Z,6.67
2023-01-15T13:55:34.205Z,15.47
2023-01-15T13:58:02.734Z,12.17
2023-01-15T14:00:32.711Z,16.00
2023-01-15T14:03:02.053Z,16.40
2023-01-15T14:05:39.288Z,16.53
2023-01-15T14:08:17.280Z,15.90
2023-01-15T14:10:48.828Z,16.47
2023-01-15T14:13:34.860Z,14.63
2023-01-15T14:16:09.559Z,13.60
2023-01-15T14:18:46.339Z,9.73
2023-01-15T14:21:31.750Z,15.93
2023-01-15T14:24:30.119Z,12.70
2023-01-15T14:27:04.568Z,15.27
2023-01-15T14:30:03.488Z,13.37
2023-01-15T14:32:40.379Z,14.37
2023-01-15T14:35:13.166Z,16.53
2023-01-15T14:37:47.017Z,16.20
2023-01-15T14:40:20.281Z,13.53
2023-01-15T14:43:11.787Z,14.57
2023-01-15T14:45:41.475Z,12.70
2023-01-15T14:48:19.727Z,14.93
2023-01-15T14:50:49.984Z,15.50
2023-01-15T14:53:45.155Z,11.10
2023-01-15T14:56:18.318Z,17.17
2023-01-15T14:58:52.007Z,14.57
2023-01-15T15:01:32.650Z,17.23
2023-01-15T15:04:06.932Z,9.47
2023-01-15T15:06:40.031Z,14.07
2023-01-15T15:09:13.804Z,12.23
2023-01-15T15:12:03.121Z,13.67
2023-01-15T15:14:33.352Z,18.17
2023-01-15T15:17:02.905Z,10.67
2023-01-15T15:19:35.202Z,16.57
2023-01-15T15:22:05.780Z,12.77
2023-01-15T15:24:35.269Z,7.63
2023-01-15T15:27:17.430Z,6.57
2023-01-15T15:29:47.817Z,10.87
2023-01-15T15:32:17.953Z,9.77
2023-01-15T15:34:51.285Z,10.47
2023-01-15T15:37:20.570Z,13.90
2023-01-15T15:39:53.573Z,13.97
2023-01-15T15:42:43.659Z,9.57
2023-01-15T15:45:37.194Z,7.97
2023-01-15T15:48:31.268Z,5.63
2023-01-15T15:51:00.022Z,12.50
2023-01-15T15:53:28.664Z,14.53
2023-01-15T15:55:57.971Z,15.13
2023-01-15T15:58:28.249Z,12.57
2023-01-15T16:00:58.648Z,19.53
2023-01-15T16:03:27.831Z,6.60
2023-01-15T16:06:00.808Z,11.27
2023-01-15T16:08:31.207Z,14.13
2023-01-15T16:11:01.702Z,13.63
2023-01-15T16:13:31.683Z,10.87
2023-01-15T16:16:02.523Z,17.57
2023-01-15T16:18:33.415Z,11.73
2023-01-15T16:21:02.403Z,8.60
2023-01-15T16:23:31.717Z,14.40
2023-01-15T16:26:01.692Z,5.20
2023-01-15T16:28:32.743Z,15.20
2023-01-15T16:31:04.207Z,9.70
2023-01-15T16:33:32.865Z,8.53
2023-01-15T16:36:04.842Z,4.80
2023-01-15T16:38:34.368Z,7.13
2023-01-15T16:41:03.029Z,6.47
2023-01-15T16:43:32.670Z,9.53
2023-01-15T16:46:07.903Z,9.73
2023-01-15T16:48:38.440Z,6.97
2023-01-15T16:51:30.570Z,8.80
2023-01-15T16:53:59.529Z,8.03
2023-01-15T16:56:48.922Z,13.53
2023-01-15T16:59:18.900Z,13.93
2023-01-15T17:01:49.338Z,9.37
2023-01-15T17:04:20.858Z,8.23
2023-01-15T17:06:56.626Z,12.23
2023-01-15T17:09:26.996Z,8.80
2023-01-15T17:11:56.272Z,14.73
2023-01-15T17:14:25.862Z,7.33
2023-01-15T17:17:17.549Z,11.03
2023-01-15T17:19:46.195Z,14.77
2023-01-15T17:22:16.866Z,15.80
2023-01-15T17:24:49.103Z,9.10
2023-01-15T17:27:17.668Z,8.30
2023-01-15T17:29:46.165Z,12.87
2023-01-15T17:32:17.698Z,10.60
2023-01-15T17:34:46.266Z,9.47
2023-01-15T17:37:14.751Z,9.97
2023-01-15T17:39:43.349Z,11.17
2023-01-15T17:42:15.491Z,10.53
2023-01-15T17:44:44.000Z,5.23
2023-01-15T17:47:12.826Z,9.50
2023-01-15T17:49:43.899Z,5.17
2023-01-15T17:52:17.927Z,5.60
2023-01-15T17:55:04.013Z,7.80
2023-01-15T17:57:49.939Z,6.57
2023-01-15T18:00:36.454Z,2.63
2023-01-15T18:03:22.869Z,7.87
2023-01-15T18:05:52.946Z,5.20
2023-01-15T18:08:21.642Z,5.30
2023-01-15T18:10:50.181Z,3.80
2023-01-15T18:13:18.780Z,9.03
2023-01-15T18:15:47.275Z,3.57
2023-01-15T18:18:16.522Z,5.53
2023-01-15T18:20:45.180Z,1.67
2023-01-15T18:23:15.076Z,2.70
2023-01-15T18:25:46.310Z,2.17
2023-01-15T18:28:15.086Z,5.03
2023-01-15T18:30:43.566Z,5.93
2023-01-15T18:33:12.175Z,2.03
2023-01-15T18:35:40.717Z,3.77
2023-01-15T18:38:09.181Z,6.30
2023-01-15T18:40:39.147Z,7.13
2023-01-15T18:43:25.002Z,2.37
2023-01-15T18:46:11.102Z,5.67
2023-01-15T18:48:39.766Z,5.57
2023-01-15T18:51:08.777Z,3.50
2023-01-15T18:53:38.429Z,4.33
2023-01-15T18:56:08.634Z,4.93
2023-01-15T18:58:37.116Z,2.47
2023-01-15T19:01:09.084Z,2.53
2023-01-15T19:03:37.730Z,4.63
2023-01-15T19:06:11.784Z,2.97
2023-01-15T19:08:40.679Z,2.97
2023-01-15T19:11:15.225Z,0.70
2023-01-15T19:13:43.831Z,2.43
2023-01-15T19:16:29.884Z,1.63
2023-01-15T19:18:58.504Z,3.03
2023-01-15T19:21:26.980Z,0.73
2023-01-15T19:23:55.571Z,2.47
2023-01-15T19:26:25.609Z,0.73
2023-01-15T19:28:54.085Z,0.70
2023-01-15T19:31:39.328Z,0.57
2023-01-15T19:34:32.801Z,1.00
2023-01-15T19:37:00.475Z,2.07
2023-01-15T19:39:29.399Z,0.77
2023-01-15T19:42:17.574Z,0.93
2023-01-15T19:45:03.846Z,0.50
2023-01-15T19:47:53.366Z,1.73
2023-01-15T19:50:23.095Z,0.80
2023-01-15T19:52:52.301Z,1.20
2023-01-15T19:55:21.371Z,0.83
2023-01-15T19:57:57.992Z,1.03
2023-01-15T20:00:26.978Z,1.30
2023-01-15T20:02:56.471Z,1.43
2023-01-15T20:05:26.248Z,0.37
2023-01-15T20:07:54.905Z,1.90
2023-01-15T20:10:24.507Z,1.27
2023-01-15T20:13:11.982Z,0.40
2023-01-15T20:15:42.573Z,0.20
2023-01-15T20:18:11.247Z,0.87
2023-01-15T20:20:40.032Z,0.43
2023-01-15T20:23:10.133Z,1.37
2023-01-15T20:25:41.617Z,1.67
2023-01-15T20:28:12.960Z,1.27
2023-01-15T20:30:42.579Z,1.20
2023-01-15T20:33:11.191Z,0.40
2023-01-15T20:35:40.754Z,1.13
2023-01-15T20:38:09.359Z,0.97
2023-01-15T20:40:37.969Z,0.53
2023-01-15T20:43:24.022Z,0.83
2023-01-15T20:45:54.778Z,0.50
2023-01-15T20:48:40.731Z,0.90
2023-01-15T20:51:12.701Z,0.50
2023-01-15T20:53:42.378Z,0.57
2023-01-15T20:56:14.082Z,1.30
2023-01-15T20:58:42.694Z,0.90
2023-01-15T21:01:15.424Z,1.90
2023-01-15T21:03:44.071Z,5.90
2023-01-15T21:06:12.851Z,0.43
2023-01-15T21:08:43.410Z,0.87
2023-01-15T21:11:13.203Z,1.30
2023-01-15T21:13:44.947Z,1.70
2023-01-15T21:16:15.641Z,0.83
2023-01-15T21:18:45.387Z,1.37
2023-01-15T21:21:14.992Z,0.97
2023-01-15T21:23:45.553Z,0.97
2023-01-15T21:26:14.391Z,1.13
2023-01-15T21:28:44.297Z,2.97
2023-01-15T21:31:13.503Z,2.10
2023-01-15T21:33:43.490Z,12.33
2023-01-15T21:36:12.777Z,3.23
2023-01-15T21:38:41.561Z,0.30
2023-01-15T21:41:10.681Z,0.43
2023-01-15T21:43:56.635Z,1.13
2023-01-15T21:46:27.844Z,1.03
2023-01-15T21:48:58.155Z,0.97
2023-01-15T21:51:26.769Z,1.43
2023-01-15T21:53:55.430Z,0.27
2023-01-15T21:56:23.961Z,1.23
2023-01-15T21:58:52.525Z,1.50
2023-01-15T22:01:21.172Z,0.30
2023-01-15T22:03:49.687Z,0.90
2023-01-15T22:06:19.725Z,0.40
2023-01-15T22:08:48.332Z,0.20
2023-01-15T22:11:16.805Z,0.10
2023-01-15T22:13:45.394Z,0.30
2023-01-15T22:16:14.018Z,0.00
2023-01-15T22:18:42.498Z,0.10
2023-01-15T22:21:15.588Z,0.10
2023-01-15T22:23:49.026Z,0.10
2023-01-15T22:26:18.917Z,0.00
2023-01-15T22:28:47.429Z,0.10
2023-01-15T22:31:17.923Z,0.37
2023-01-15T22:33:46.838Z,0.10
2023-01-15T22:36:17.006Z,0.63
2023-01-15T22:38:47.657Z,0.10
2023-01-15T22:41:37.402Z,1.30
2023-01-15T22:44:06.103Z,0.30
2023-01-15T22:46:34.727Z,0.40
2023-01-15T22:49:03.195Z,0.50
2023-01-15T22:51:31.991Z,0.47
2023-01-15T22:54:02.054Z,0.40
2023-01-15T22:56:30.850Z,0.50
2023-01-15T22:58:59.455Z,0.70
2023-01-15T23:01:28.238Z,0.87
2023-01-15T23:03:56.854Z,1.10
2023-01-15T23:06:27.898Z,1.37
2023-01-15T23:08:59.383Z,1.20
2023-01-15T23:11:29.833Z,2.13
2023-01-15T23:13:58.468Z,1.30
2023-01-15T23:16:26.967Z,1.13
2023-01-15T23:18:55.753Z,1.20
2023-01-15T23:21:25.788Z,1.10
2023-01-15T23:23:57.565Z,0.97
2023-01-15T23:26:27.103Z,1.20
2023-01-15T23:28:57.065Z,1.00
2023-01-15T23:31:26.419Z,2.40
2023-01-15T23:33:55.141Z,1.10
2023-01-15T23:36:24.115Z,0.80
2023-01-15T23:38:52.728Z,1.10
2023-01-15T23:41:43.871Z,1.30
2023-01-15T23:44:45.790Z,1.33
2023-01-15T23:47:14.321Z,1.00
2023-01-15T23:49:42.815Z,1.83
2023-01-15T23:52:11.520Z,1.07
2023-01-15T23:54:40.025Z,1.20
2023-01-15T23:57:08.877Z,1.50
2023-01-15T23:59:39.228Z,1.47
